createdAt,value
2023-04-25T00:00:30.721Z,20.2
2023-04-25T00:02:14.432Z,20.2
2023-04-25T00:03:58.141Z,20.2
2023-04-25T00:05:41.840Z,20.2
2023-04-25T00:07:25.564Z,20.2
2023-04-25T00:09:09.277Z,20.1
2023-04-25T00:10:52.950Z,20.1
2023-04-25T00:12:36.656Z,20.1
2023-04-25T00:14:20.342Z,20.1
2023-04-25T00:16:04.053Z,20.1
2023-04-25T00:17:47.781Z,20.1
2023-04-25T00:19:31.474Z,20.1
2023-04-25T00:21:15.137Z,20.1
2023-04-25T00:22:58.867Z,20.1
2023-04-25T00:24:42.555Z,20.1
2023-04-25T00:26:26.318Z,20.1
2023-04-25T00:28:09.950Z,20.1
2023-04-25T00:29:53.662Z,20.1
2023-04-25T00:31:37.362Z,20.1
2023-04-25T00:33:21.071Z,20.1
2023-04-25T00:35:04.744Z,20.1
2023-04-25T00:36:48.457Z,20.1
2023-04-25T00:38:32.252Z,20.1
2023-04-25T00:40:15.914Z,20.1
2023-04-25T00:41:59.593Z,20.1
2023-04-25T00:43:43.307Z,20.1
2023-04-25T00:45:27.001Z,20.1
2023-04-25T00:47:10.710Z,20.1
2023-04-25T00:48:54.471Z,20.1
2023-04-25T00:50:38.134Z,20.1
2023-04-25T00:52:21.808Z,20.1
2023-04-25T00:54:05.524Z,20.1
2023-04-25T00:55:49.252Z,20.1
2023-04-25T00:57:32.933Z,20.1
2023-04-25T00:59:16.612Z,20.1
2023-04-25T01:01:00.336Z,20
2023-04-25T01:02:43.994Z,20
2023-04-25T01:04:27.699Z,20
2023-04-25T01:06:11.402Z,20.1
2023-04-25T01:07:55.111Z,20.1
2023-04-25T01:09:38.804Z,20
2023-04-25T01:11:22.521Z,20
2023-04-25T01:13:06.235Z,20
2023-04-25T01:14:49.905Z,20
2023-04-25T01:16:33.629Z,20
2023-04-25T01:18:17.332Z,20
2023-04-25T01:20:01.019Z,20
2023-04-25T01:21:44.720Z,20
2023-04-25T01:23:28.445Z,20
2023-04-25T01:25:12.151Z,20
2023-04-25T01:26:55.842Z,20
2023-04-25T01:28:39.568Z,20
2023-04-25T01:30:23.287Z,20
2023-04-25T01:32:06.944Z,20
2023-04-25T01:33:50.633Z,20
2023-04-25T01:35:34.347Z,20
2023-04-25T01:37:18.073Z,20
2023-04-25T01:39:01.744Z,20
2023-04-25T01:40:45.444Z,20
2023-04-25T01:42:29.156Z,20
2023-04-25T01:44:12.866Z,20
2023-04-25T01:45:56.574Z,20
2023-04-25T01:47:40.262Z,20
2023-04-25T01:49:23.966Z,19.9
2023-04-25T01:51:07.679Z,20
2023-04-25T01:52:51.378Z,20
2023-04-25T01:54:35.077Z,20
2023-04-25T01:56:18.784Z,19.9
2023-04-25T01:58:02.488Z,20
2023-04-25T01:59:46.186Z,19.9
2023-04-25T02:01:29.893Z,19.9
2023-04-25T02:03:13.583Z,19.9
2023-04-25T02:04:57.303Z,19.9
2023-04-25T02:06:41.009Z,19.9
2023-04-25T02:08:24.702Z,19.9
2023-04-25T02:10:08.414Z,19.9
2023-04-25T02:11:52.106Z,19.9
2023-04-25T02:13:35.875Z,19.9
2023-04-25T02:15:19.510Z,19.9
2023-04-25T02:17:03.250Z,19.9
2023-04-25T02:18:46.965Z,19.9
2023-04-25T02:20:30.622Z,19.9
2023-04-25T02:22:14.336Z,19.9
2023-04-25T02:23:58.045Z,19.9
2023-04-25T02:25:41.730Z,19.9
2023-04-25T02:27:25.419Z,19.9
2023-04-25T02:29:09.117Z,19.9
2023-04-25T02:30:52.863Z,19.9
2023-04-25T02:32:36.545Z,19.9
2023-04-25T02:34:20.234Z,19.9
2023-04-25T02:36:03.999Z,19.9
2023-04-25T02:37:47.702Z,19.9
2023-04-25T02:39:31.393Z,19.9
2023-04-25T02:41:15.112Z,19.9
2023-04-25T02:42:58.811Z,19.9
2023-04-25T02:44:42.462Z,19.9
2023-04-25T02:46:26.205Z,19.9
2023-04-25T02:48:09.893Z,19.9
2023-04-25T02:49:53.597Z,19.9
2023-04-25T02:51:37.305Z,19.9
2023-04-25T02:53:20.998Z,19.9
2023-04-25T02:55:04.779Z,19.9
2023-04-25T02:56:48.394Z,19.8
2023-04-25T02:58:32.119Z,19.8
2023-04-25T03:00:15.806Z,19.8
2023-04-25T03:01:59.486Z,19.8
2023-04-25T03:03:43.175Z,19.8
2023-04-25T03:05:26.883Z,19.8
2023-04-25T03:07:10.590Z,19.8
2023-04-25T03:08:54.308Z,19.8
2023-04-25T03:10:38.012Z,19.8
2023-04-25T03:12:21.675Z,19.8
2023-04-25T03:14:05.404Z,19.8
2023-04-25T03:15:49.116Z,19.8
2023-04-25T03:17:32.853Z,19.8
2023-04-25T03:19:16.535Z,19.8
2023-04-25T03:21:00.210Z,19.8
2023-04-25T03:22:43.922Z,19.8
2023-04-25T03:24:27.631Z,19.8
2023-04-25T03:26:11.337Z,19.8
2023-04-25T03:27:55.066Z,19.8
2023-04-25T03:29:38.757Z,19.8
2023-04-25T03:31:22.420Z,19.8
2023-04-25T03:33:06.139Z,19.8
2023-04-25T03:34:49.855Z,19.8
2023-04-25T03:36:33.590Z,19.7
2023-04-25T03:38:17.259Z,19.8
2023-04-25T03:40:00.951Z,19.8
2023-04-25T03:41:44.658Z,19.8
2023-04-25T03:43:28.376Z,19.7
2023-04-25T03:45:12.065Z,19.7
2023-04-25T03:46:55.771Z,19.7
2023-04-25T03:48:39.482Z,19.7
2023-04-25T03:50:23.182Z,19.7
2023-04-25T03:52:06.885Z,19.7
2023-04-25T03:53:50.605Z,19.7
2023-04-25T03:55:34.317Z,19.7
2023-04-25T03:57:18.009Z,19.7
2023-04-25T03:59:01.693Z,19.7
2023-04-25T04:00:45.406Z,19.7
2023-04-25T04:02:29.115Z,19.7
2023-04-25T04:04:12.816Z,19.7
2023-04-25T04:05:56.520Z,19.7
2023-04-25T04:07:40.218Z,19.7
2023-04-25T04:09:23.929Z,19.7
2023-04-25T04:11:07.630Z,19.7
2023-04-25T04:12:51.347Z,19.7
2023-04-25T04:14:35.022Z,19.7
2023-04-25T04:16:18.709Z,19.7
2023-04-25T04:18:02.426Z,19.7
2023-04-25T04:19:46.115Z,19.7
2023-04-25T04:21:29.864Z,19.7
2023-04-25T04:23:13.524Z,19.7
2023-04-25T04:24:57.245Z,19.7
2023-04-25T04:26:40.940Z,19.7
2023-04-25T04:28:24.662Z,19.7
2023-04-25T04:30:08.348Z,19.7
2023-04-25T04:31:52.041Z,19.7
2023-04-25T04:33:35.844Z,19.7
2023-04-25T04:35:19.469Z,19.7
2023-04-25T04:37:03.140Z,19.7
2023-04-25T04:38:46.848Z,19.7
2023-04-25T04:40:30.613Z,19.7
2023-04-25T04:42:14.246Z,19.7
2023-04-25T04:43:57.981Z,19.7
2023-04-25T04:45:41.665Z,19.7
2023-04-25T04:47:25.352Z,19.7
2023-04-25T04:49:09.065Z,19.7
2023-04-25T04:50:52.761Z,19.7
2023-04-25T04:52:36.462Z,19.7
2023-04-25T04:54:20.161Z,19.7
2023-04-25T04:56:03.873Z,19.7
2023-04-25T04:57:47.588Z,19.7
2023-04-25T04:59:31.285Z,19.7
2023-04-25T05:01:14.984Z,19.7
2023-04-25T05:02:58.699Z,19.7
2023-04-25T05:04:42.380Z,19.7
2023-04-25T05:06:26.101Z,19.7
2023-04-25T05:09:53.506Z,19.7
2023-04-25T05:11:37.201Z,19.7
2023-04-25T05:13:20.930Z,19.7
2023-04-25T05:15:04.624Z,19.7
2023-04-25T05:16:48.309Z,19.7
2023-04-25T05:18:32.039Z,19.7
2023-04-25T05:21:59.427Z,19.7
2023-04-25T05:23:43.168Z,19.7
2023-04-25T05:25:26.821Z,19.7
2023-04-25T05:27:10.526Z,19.7
2023-04-25T05:28:54.241Z,19.7
2023-04-25T05:30:38.005Z,19.7
2023-04-25T05:32:21.693Z,19.7
2023-04-25T05:34:05.411Z,19.7
2023-04-25T05:35:49.122Z,19.7
2023-04-25T05:37:32.777Z,19.7
2023-04-25T05:39:16.473Z,19.7
2023-04-25T05:41:00.190Z,19.7
2023-04-25T05:42:43.920Z,19.7
2023-04-25T05:44:27.936Z,19.7
2023-04-25T05:46:11.297Z,19.7
2023-04-25T05:47:55.018Z,19.7
2023-04-25T05:49:38.685Z,19.7
2023-04-25T05:51:22.611Z,19.7
2023-04-25T05:53:06.086Z,19.7
2023-04-25T05:54:49.822Z,19.8
2023-04-25T05:56:33.479Z,19.8
2023-04-25T05:58:17.191Z,19.8
2023-04-25T06:00:00.892Z,19.8
2023-04-25T06:01:44.615Z,19.8
2023-04-25T06:03:28.277Z,19.8
2023-04-25T06:05:11.987Z,19.9
2023-04-25T06:06:55.662Z,19.9
2023-04-25T06:08:39.379Z,19.9
2023-04-25T06:10:23.086Z,19.9
2023-04-25T06:12:06.822Z,19.9
2023-04-25T06:13:50.460Z,19.9
2023-04-25T06:15:34.292Z,19.9
2023-04-25T06:17:17.892Z,19.9
2023-04-25T06:19:01.555Z,19.9
2023-04-25T06:20:45.274Z,19.9
2023-04-25T06:22:29.016Z,19.9
2023-04-25T06:24:12.684Z,19.9
2023-04-25T06:25:56.376Z,19.9
2023-04-25T06:27:40.136Z,19.9
2023-04-25T06:29:23.771Z,19.9
2023-04-25T06:31:07.494Z,19.9
2023-04-25T06:32:51.231Z,19.9
2023-04-25T06:34:34.918Z,19.9
2023-04-25T06:36:18.597Z,19.9
2023-04-25T06:38:02.331Z,19.9
2023-04-25T06:39:46.000Z,19.9
2023-04-25T06:41:29.704Z,19.9
2023-04-25T06:43:13.406Z,19.9
2023-04-25T06:44:57.116Z,19.9
2023-04-25T06:46:40.815Z,19.9
2023-04-25T06:48:24.510Z,19.9
2023-04-25T06:50:08.319Z,19.9
2023-04-25T06:51:51.954Z,20
2023-04-25T06:53:35.688Z,19.9
2023-04-25T06:55:19.315Z,20
2023-04-25T06:57:03.099Z,20
2023-04-25T06:58:46.824Z,20
2023-04-25T07:00:30.437Z,20
2023-04-25T07:02:14.159Z,20
2023-04-25T07:03:57.853Z,20.2
2023-04-25T07:05:41.567Z,20.7
2023-04-25T07:07:25.288Z,21
2023-04-25T07:09:08.976Z,21.3
2023-04-25T07:10:52.657Z,21.4
2023-04-25T07:12:36.370Z,21.6
2023-04-25T07:14:20.070Z,21.7
2023-04-25T07:16:03.766Z,21.9
2023-04-25T07:17:47.491Z,22
2023-04-25T07:19:31.181Z,22
2023-04-25T07:21:14.883Z,22
2023-04-25T07:22:58.596Z,21.9
2023-04-25T07:24:42.309Z,21.8
2023-04-25T07:26:26.001Z,21.8
2023-04-25T07:28:09.673Z,21.7
2023-04-25T07:29:53.412Z,21.5
2023-04-25T07:31:37.090Z,21.5
2023-04-25T07:33:20.806Z,21.4
2023-04-25T07:35:04.510Z,21.3
2023-04-25T07:36:48.214Z,21.3
2023-04-25T07:38:31.979Z,21.2
2023-04-25T07:40:15.638Z,21.2
2023-04-25T07:41:59.431Z,21.1
2023-04-25T07:43:43.002Z,21.1
2023-04-25T07:45:26.702Z,21.1
2023-04-25T07:47:10.417Z,21
2023-04-25T07:48:54.090Z,21
2023-04-25T07:50:37.801Z,21
2023-04-25T07:52:21.507Z,20.9
2023-04-25T07:54:05.210Z,20.9
2023-04-25T07:55:48.919Z,20.8
2023-04-25T07:57:32.604Z,20.8
2023-04-25T07:59:16.294Z,20.8
2023-04-25T08:01:00.011Z,20.7
2023-04-25T08:02:43.692Z,20.8
2023-04-25T08:04:27.408Z,20.7
2023-04-25T08:06:11.095Z,20.7
2023-04-25T08:07:54.796Z,20.7
2023-04-25T08:09:38.488Z,20.7
2023-04-25T08:11:22.198Z,20.7
2023-04-25T08:14:49.602Z,20.7
2023-04-25T08:16:33.307Z,20.7
2023-04-25T08:18:17.063Z,20.7
2023-04-25T08:20:00.693Z,20.7
2023-04-25T08:21:44.415Z,20.7
2023-04-25T08:23:28.122Z,20.7
2023-04-25T08:25:11.800Z,20.8
2023-04-25T08:26:55.529Z,20.8
2023-04-25T08:28:39.214Z,20.8
2023-04-25T08:30:22.917Z,20.8
2023-04-25T08:32:06.609Z,20.9
2023-04-25T08:33:50.462Z,20.9
2023-04-25T08:35:34.016Z,20.9
2023-04-25T08:37:17.752Z,20.9
2023-04-25T08:39:01.454Z,20.9
2023-04-25T08:40:45.106Z,20.9
2023-04-25T08:42:28.987Z,20.9
2023-04-25T08:44:12.716Z,20.9
2023-04-25T08:45:56.208Z,20.8
2023-04-25T08:47:39.921Z,20.8
2023-04-25T08:49:23.805Z,20.8
2023-04-25T08:51:07.476Z,20.8
2023-04-25T08:52:51.170Z,20.8
2023-04-25T08:54:34.712Z,20.8
2023-04-25T08:56:18.610Z,20.8
2023-04-25T08:58:02.283Z,20.8
2023-04-25T08:59:45.930Z,20.8
2023-04-25T09:01:29.531Z,20.8
2023-04-25T09:03:13.298Z,20.7
2023-04-25T09:04:56.997Z,20.7
2023-04-25T09:06:40.821Z,20.6
2023-04-25T09:08:24.515Z,20.6
2023-04-25T09:10:08.190Z,20.6
2023-04-25T09:11:51.774Z,20.6
2023-04-25T09:13:35.430Z,20.6
2023-04-25T09:15:19.343Z,20.6
2023-04-25T09:17:03.006Z,20.6
2023-04-25T09:18:46.800Z,20.7
2023-04-25T09:20:30.446Z,20.7
2023-04-25T09:22:14.184Z,20.7
2023-04-25T09:23:57.812Z,20.7
2023-04-25T09:25:41.340Z,20.7
2023-04-25T09:27:25.128Z,20.7
2023-04-25T09:29:08.771Z,20.7
2023-04-25T09:30:52.618Z,20.7
2023-04-25T09:32:36.164Z,20.8
2023-04-25T09:34:20.049Z,20.8
2023-04-25T09:36:03.624Z,20.8
2023-04-25T09:37:47.473Z,20.8
2023-04-25T09:39:31.087Z,20.9
2023-04-25T09:41:14.712Z,20.9
2023-04-25T09:42:58.427Z,20.9
2023-04-25T09:44:42.086Z,21
2023-04-25T09:46:25.790Z,21
2023-04-25T09:48:09.691Z,21
2023-04-25T09:49:53.273Z,21.1
2023-04-25T09:51:36.900Z,21.1
2023-04-25T09:53:20.601Z,21.1
2023-04-25T09:55:04.471Z,21.1
2023-04-25T09:56:48.297Z,21.1
2023-04-25T09:58:31.741Z,21.1
2023-04-25T10:00:15.611Z,21.2
2023-04-25T10:01:59.189Z,21.2
2023-04-25T10:03:42.829Z,21.2
2023-04-25T10:05:26.551Z,21.2
2023-04-25T10:07:10.212Z,21.3
2023-04-25T10:08:53.953Z,21.3
2023-04-25T10:10:37.614Z,21.3
2023-04-25T10:12:21.342Z,21.3
2023-04-25T10:14:05.003Z,21.3
2023-04-25T10:15:48.743Z,21.3
2023-04-25T10:17:32.444Z,21.4
2023-04-25T10:19:16.146Z,21.4
2023-04-25T10:20:59.835Z,21.4
2023-04-25T10:22:43.522Z,21.4
2023-04-25T10:24:27.228Z,21.4
2023-04-25T10:26:10.917Z,21.4
2023-04-25T10:27:54.707Z,21.5
2023-04-25T10:29:38.327Z,21.5
2023-04-25T10:31:22.084Z,21.5
2023-04-25T10:33:05.803Z,21.5
2023-04-25T10:34:49.462Z,21.5
2023-04-25T10:36:33.170Z,21.5
2023-04-25T10:38:16.852Z,21.4
2023-04-25T10:40:00.604Z,21.4
2023-04-25T10:41:44.275Z,21.4
2023-04-25T10:43:28.011Z,21.4
2023-04-25T10:45:11.824Z,21.4
2023-04-25T10:46:55.373Z,21.4
2023-04-25T10:48:39.167Z,21.4
2023-04-25T10:50:22.980Z,21.4
2023-04-25T10:52:06.657Z,21.4
2023-04-25T10:53:50.277Z,21.3
2023-04-25T10:55:34.107Z,21.3
2023-04-25T10:57:17.630Z,21.2
2023-04-25T10:59:01.236Z,21.1
2023-04-25T11:00:45.164Z,21.1
2023-04-25T11:02:28.912Z,21.1
2023-04-25T11:04:12.513Z,21
2023-04-25T11:05:56.238Z,21
2023-04-25T11:07:39.909Z,21
2023-04-25T11:09:23.472Z,20.9
2023-04-25T11:11:07.335Z,20.9
2023-04-25T11:12:50.992Z,20.9
2023-04-25T11:14:34.616Z,20.9
2023-04-25T11:16:18.299Z,20.9
2023-04-25T11:18:02.206Z,20.9
2023-04-25T11:19:45.808Z,20.9
2023-04-25T11:21:29.505Z,21
2023-04-25T11:23:13.232Z,21
2023-04-25T11:24:56.914Z,21
2023-04-25T11:26:40.521Z,21.1
2023-04-25T11:28:28.419Z,21.1
2023-04-25T11:30:08.079Z,21.1
2023-04-25T11:31:51.741Z,21.1
2023-04-25T11:33:35.301Z,21.1
2023-04-25T11:35:19.106Z,21.2
2023-04-25T11:37:02.889Z,21.2
2023-04-25T11:38:46.383Z,21.2
2023-04-25T11:40:30.228Z,21.2
2023-04-25T11:42:13.758Z,21.2
2023-04-25T11:43:58.847Z,21.2
2023-04-25T11:45:41.363Z,21.2
2023-04-25T11:47:25.035Z,21.2
2023-04-25T11:49:08.783Z,21.2
2023-04-25T11:50:52.444Z,21.2
2023-04-25T11:52:36.143Z,21.2
2023-04-25T11:54:19.683Z,21.2
2023-04-25T11:56:03.551Z,21.2
2023-04-25T11:57:47.252Z,21.2
2023-04-25T11:59:30.930Z,21.3
2023-04-25T12:01:14.623Z,21.3
2023-04-25T12:02:58.316Z,21.4
2023-04-25T12:04:42.063Z,21.5
2023-04-25T12:06:25.796Z,21.6
2023-04-25T12:08:09.440Z,21.7
2023-04-25T12:09:53.120Z,21.8
2023-04-25T12:11:36.818Z,22
2023-04-25T12:13:20.636Z,22.1
2023-04-25T12:15:04.244Z,22.2
2023-04-25T12:16:47.991Z,22.3
2023-04-25T12:18:31.622Z,22.4
2023-04-25T12:20:15.347Z,22.5
2023-04-25T12:21:59.019Z,22.5
2023-04-25T12:23:42.857Z,22.6
2023-04-25T12:25:26.467Z,22.6
2023-04-25T12:27:10.225Z,22.6
2023-04-25T12:28:53.794Z,22.6
2023-04-25T12:30:37.541Z,22.7
2023-04-25T12:32:21.312Z,22.7
2023-04-25T12:34:04.974Z,22.7
2023-04-25T12:35:48.673Z,22.7
2023-04-25T12:37:32.446Z,22.8
2023-04-25T12:39:16.079Z,22.8
2023-04-25T12:40:59.759Z,22.9
2023-04-25T12:42:43.595Z,22.8
2023-04-25T12:44:27.163Z,22.9
2023-04-25T12:46:10.895Z,22.9
2023-04-25T12:47:54.608Z,22.8
2023-04-25T12:49:38.132Z,22.8
2023-04-25T12:51:21.973Z,22.7
2023-04-25T12:53:05.689Z,22.7
2023-04-25T12:54:49.291Z,22.6
2023-04-25T12:56:33.093Z,22.5
2023-04-25T12:58:16.888Z,22.4
2023-04-25T13:00:00.495Z,22.4
2023-04-25T13:01:44.059Z,22.4
2023-04-25T13:03:27.915Z,22.4
2023-04-25T13:05:11.514Z,22.5
2023-04-25T13:06:55.332Z,22.5
2023-04-25T13:08:39.015Z,22.6
2023-04-25T13:10:22.700Z,22.7
2023-04-25T13:12:06.420Z,22.7
2023-04-25T13:13:49.972Z,22.8
2023-04-25T13:15:33.876Z,22.9
2023-04-25T13:17:17.371Z,22.9
2023-04-25T13:19:01.267Z,22.9
2023-04-25T13:20:44.865Z,22.9
2023-04-25T13:22:28.473Z,22.9
2023-04-25T13:24:12.333Z,23
2023-04-25T13:25:56.059Z,23.1
2023-04-25T13:27:39.669Z,23.2
2023-04-25T13:29:23.435Z,23.3
2023-04-25T13:31:07.206Z,23.3
2023-04-25T13:32:50.796Z,23.3
2023-04-25T13:34:34.450Z,23.3
2023-04-25T13:36:18.146Z,23.4
2023-04-25T13:38:01.815Z,23.3
2023-04-25T13:39:45.495Z,23.3
2023-04-25T13:41:29.369Z,23.2
2023-04-25T13:43:12.925Z,23.2
2023-04-25T13:44:56.644Z,23
2023-04-25T13:46:40.371Z,22.9
2023-04-25T13:48:24.043Z,22.8
2023-04-25T13:50:07.716Z,22.7
2023-04-25T13:51:51.487Z,22.8
2023-04-25T13:53:35.102Z,22.8
2023-04-25T13:55:18.898Z,22.9
2023-04-25T13:57:02.546Z,22.9
2023-04-25T13:58:46.301Z,22.9
2023-04-25T14:00:29.935Z,22.9
2023-04-25T14:02:13.783Z,23
2023-04-25T14:03:57.401Z,23
2023-04-25T14:05:41.032Z,23
2023-04-25T14:07:24.839Z,22.9
2023-04-25T14:09:08.513Z,22.9
2023-04-25T14:10:52.247Z,22.8
2023-04-25T14:12:35.858Z,22.7
2023-04-25T14:14:19.596Z,22.5
2023-04-25T14:16:03.258Z,22.4
2023-04-25T14:17:46.993Z,22.3
2023-04-25T14:19:30.662Z,22.2
2023-04-25T14:21:14.365Z,22.1
2023-04-25T14:22:58.103Z,22.1
2023-04-25T14:24:41.917Z,22.2
2023-04-25T14:26:25.473Z,22.3
2023-04-25T14:28:09.188Z,22.4
2023-04-25T14:29:52.918Z,22.3
2023-04-25T14:31:36.675Z,22.3
2023-04-25T14:33:20.304Z,22.3
2023-04-25T14:35:04.031Z,22.3
2023-04-25T14:36:47.764Z,22.3
2023-04-25T14:38:31.398Z,22.3
2023-04-25T14:40:15.305Z,22.2
2023-04-25T14:41:58.806Z,22.1
2023-04-25T14:43:42.531Z,22.1
2023-04-25T14:45:26.217Z,22.1
2023-04-25T14:47:09.904Z,22
2023-04-25T14:48:53.769Z,22
2023-04-25T14:50:37.312Z,21.9
2023-04-25T14:52:21.022Z,21.9
2023-04-25T14:54:04.746Z,21.9
2023-04-25T14:55:48.536Z,21.9
2023-04-25T14:57:32.143Z,22
2023-04-25T14:59:15.886Z,22
2023-04-25T15:00:59.539Z,22.1
2023-04-25T15:02:43.388Z,22.1
2023-04-25T15:04:27.060Z,22.1
2023-04-25T15:06:10.699Z,22.1
2023-04-25T15:07:54.476Z,22
2023-04-25T15:09:38.087Z,22
2023-04-25T15:11:21.728Z,22.1
2023-04-25T15:13:05.522Z,22.2
2023-04-25T15:14:49.142Z,22.2
2023-04-25T15:16:32.851Z,22.2
2023-04-25T15:18:16.724Z,22.1
2023-04-25T15:20:00.414Z,22.1
2023-04-25T15:21:44.001Z,22.1
2023-04-25T15:23:27.772Z,22
2023-04-25T15:25:11.505Z,22
2023-04-25T15:26:55.240Z,22
2023-04-25T15:28:38.905Z,22
2023-04-25T15:30:22.472Z,21.9
2023-04-25T15:32:06.238Z,21.9
2023-04-25T15:33:49.904Z,21.9
2023-04-25T15:35:33.629Z,21.9
2023-04-25T15:37:17.353Z,22
2023-04-25T15:39:01.022Z,22
2023-04-25T15:40:44.767Z,22.1
2023-04-25T15:42:28.366Z,22.1
2023-04-25T15:44:12.121Z,22.1
2023-04-25T15:45:55.828Z,22.1
2023-04-25T15:47:39.533Z,22.1
2023-04-25T15:49:23.251Z,22
2023-04-25T15:51:07.025Z,22
2023-04-25T15:52:50.614Z,22
2023-04-25T15:54:34.455Z,22
2023-04-25T15:56:18.038Z,22.1
2023-04-25T15:58:01.824Z,22.1
2023-04-25T15:59:45.459Z,22
2023-04-25T16:01:29.127Z,22
2023-04-25T16:03:12.917Z,22
2023-04-25T16:04:56.606Z,22
2023-04-25T16:06:40.213Z,22
2023-04-25T16:08:24.131Z,22
2023-04-25T16:10:07.594Z,22.1
2023-04-25T16:11:51.322Z,22.1
2023-04-25T16:13:35.120Z,22
2023-04-25T16:15:18.733Z,22
2023-04-25T16:17:02.511Z,22
2023-04-25T16:18:46.113Z,22
2023-04-25T16:20:29.912Z,22
2023-04-25T16:22:13.527Z,22
2023-04-25T16:23:57.203Z,22
2023-04-25T16:25:40.922Z,22
2023-04-25T16:27:24.616Z,22
2023-04-25T16:29:08.344Z,22
2023-04-25T16:30:52.029Z,21.9
2023-04-25T16:32:35.759Z,21.9
2023-04-25T16:34:19.534Z,21.8
2023-04-25T16:36:03.149Z,21.8
2023-04-25T16:37:46.924Z,21.7
2023-04-25T16:39:30.600Z,21.7
2023-04-25T16:41:14.249Z,21.7
2023-04-25T16:42:58.011Z,21.6
2023-04-25T16:44:41.635Z,21.6
2023-04-25T16:46:25.481Z,21.6
2023-04-25T16:48:09.069Z,21.5
2023-04-25T16:49:52.766Z,21.6
2023-04-25T16:51:36.431Z,21.6
2023-04-25T16:53:20.228Z,21.6
2023-04-25T16:55:03.897Z,21.5
2023-04-25T16:56:47.586Z,21.5
2023-04-25T16:58:31.230Z,21.5
2023-04-25T17:00:15.062Z,21.4
2023-04-25T17:01:58.646Z,21.4
2023-04-25T17:03:42.502Z,21.4
2023-04-25T17:05:26.047Z,21.4
2023-04-25T17:07:09.727Z,21.3
2023-04-25T17:08:53.497Z,21.3
2023-04-25T17:10:37.148Z,21.3
2023-04-25T17:12:20.895Z,21.3
2023-04-25T17:14:04.585Z,21.2
2023-04-25T17:15:48.276Z,21.2
2023-04-25T17:17:31.998Z,21.2
2023-04-25T17:19:15.693Z,21.1
2023-04-25T17:20:59.377Z,21.1
2023-04-25T17:22:43.284Z,21.1
2023-04-25T17:24:26.750Z,21.1
2023-04-25T17:26:10.562Z,21.1
2023-04-25T17:27:54.156Z,21
2023-04-25T17:29:37.858Z,21
2023-04-25T17:31:21.569Z,21
2023-04-25T17:33:05.311Z,20.9
2023-04-25T17:34:48.973Z,20.9
2023-04-25T17:36:32.710Z,20.9
2023-04-25T17:38:16.370Z,20.8
2023-04-25T17:40:00.105Z,20.8
2023-04-25T17:41:43.774Z,20.8
2023-04-25T17:43:27.498Z,20.8
2023-04-25T17:45:11.238Z,20.7
2023-04-25T17:46:54.916Z,20.7
2023-04-25T17:48:38.672Z,20.7
2023-04-25T17:50:22.324Z,20.7
2023-04-25T17:52:06.075Z,20.7
2023-04-25T17:53:49.781Z,20.7
2023-04-25T17:55:33.452Z,20.7
2023-04-25T17:57:17.107Z,20.6
2023-04-25T17:59:00.948Z,20.6
2023-04-25T18:00:44.629Z,20.6
2023-04-25T18:02:28.222Z,20.6
2023-04-25T18:04:11.935Z,20.6
2023-04-25T18:05:55.711Z,20.6
2023-04-25T18:07:39.462Z,20.6
2023-04-25T18:09:23.018Z,20.6
2023-04-25T18:11:06.726Z,20.6
2023-04-25T18:12:50.437Z,20.5
2023-04-25T18:14:34.121Z,20.5
2023-04-25T18:16:17.892Z,20.5
2023-04-25T18:18:01.535Z,20.5
2023-04-25T18:19:45.236Z,20.5
2023-04-25T18:21:28.923Z,20.5
2023-04-25T18:23:12.709Z,20.5
2023-04-25T18:24:56.322Z,20.5
2023-04-25T18:26:40.145Z,20.4
2023-04-25T18:28:23.747Z,20.4
2023-04-25T18:30:07.443Z,20.4
2023-04-25T18:31:51.156Z,20.4
2023-04-25T18:33:34.898Z,20.4
2023-04-25T18:35:18.676Z,20.4
2023-04-25T18:37:02.316Z,20.4
2023-04-25T18:38:46.167Z,20.4
2023-04-25T18:40:29.731Z,20.4
2023-04-25T18:42:13.422Z,20.4
2023-04-25T18:43:57.107Z,20.4
2023-04-25T18:45:40.902Z,20.3
2023-04-25T18:47:24.508Z,20.3
2023-04-25T18:49:08.288Z,20.3
2023-04-25T18:50:51.920Z,20.3
2023-04-25T18:52:35.605Z,20.3
2023-04-25T18:54:19.338Z,20.3
2023-04-25T18:56:02.993Z,20.3
2023-04-25T18:57:46.841Z,20.3
2023-04-25T18:59:30.485Z,20.3
2023-04-25T19:01:14.111Z,20.2
2023-04-25T19:02:57.844Z,20.2
2023-04-25T19:04:41.497Z,20.2
2023-04-25T19:06:25.238Z,20.2
2023-04-25T19:08:09.038Z,20.2
2023-04-25T19:09:52.589Z,20.2
2023-04-25T19:11:36.295Z,20.2
2023-04-25T19:13:19.974Z,20.2
2023-04-25T19:15:03.705Z,20.2
2023-04-25T19:16:47.401Z,20.2
2023-04-25T19:18:31.094Z,20.2
2023-04-25T19:20:14.812Z,20.2
2023-04-25T19:21:58.510Z,20.1
2023-04-25T19:23:42.381Z,20.1
2023-04-25T19:25:25.909Z,20.1
2023-04-25T19:27:09.680Z,20.1
2023-04-25T19:28:53.320Z,20.1
2023-04-25T19:30:37.011Z,20.1
2023-04-25T19:32:20.741Z,20.1
2023-04-25T19:34:04.638Z,20.1
2023-04-25T19:35:48.149Z,20.1
2023-04-25T19:37:31.842Z,20.1
2023-04-25T19:39:15.608Z,20.1
2023-04-25T19:40:59.229Z,20.1
2023-04-25T19:42:42.944Z,20.1
2023-04-25T19:44:26.624Z,20
2023-04-25T19:46:10.336Z,20
2023-04-25T19:47:54.062Z,20.1
2023-04-25T19:49:37.717Z,20
2023-04-25T19:51:21.440Z,20
2023-04-25T19:53:05.185Z,20
2023-04-25T19:54:48.846Z,20
2023-04-25T19:56:32.621Z,20
2023-04-25T19:58:16.256Z,20
2023-04-25T19:59:59.976Z,20
2023-04-25T20:01:43.705Z,20
2023-04-25T20:03:27.365Z,20
2023-04-25T20:05:11.084Z,20
2023-04-25T20:06:54.783Z,20
2023-04-25T20:08:38.476Z,20
2023-04-25T20:10:22.187Z,20
2023-04-25T20:12:05.879Z,19.9
2023-04-25T20:13:49.680Z,19.9
2023-04-25T20:15:33.289Z,19.9
2023-04-25T20:17:16.997Z,19.9
2023-04-25T20:19:00.843Z,19.9
2023-04-25T20:20:44.378Z,19.9
2023-04-25T20:22:28.147Z,19.9
2023-04-25T20:24:11.821Z,19.9
2023-04-25T20:25:55.478Z,19.9
2023-04-25T20:27:39.178Z,19.9
2023-04-25T20:29:22.994Z,19.9
2023-04-25T20:31:06.632Z,19.9
2023-04-25T20:32:50.296Z,19.9
2023-04-25T20:34:33.989Z,19.9
2023-04-25T20:36:17.688Z,19.9
2023-04-25T20:38:01.426Z,19.9
2023-04-25T20:39:45.110Z,19.9
2023-04-25T20:41:28.936Z,19.9
2023-04-25T20:43:12.520Z,19.9
2023-04-25T20:44:56.197Z,19.9
2023-04-25T20:46:39.916Z,19.9
2023-04-25T20:48:23.645Z,19.9
2023-04-25T20:50:07.349Z,19.9
2023-04-25T20:51:51.091Z,19.9
2023-04-25T20:53:34.714Z,19.9
2023-04-25T20:55:18.434Z,20
2023-04-25T20:57:02.153Z,20
2023-04-25T20:58:45.837Z,20
2023-04-25T21:00:29.586Z,20
2023-04-25T21:02:13.354Z,20
2023-04-25T21:03:56.986Z,20.1
2023-04-25T21:05:40.605Z,20.1
2023-04-25T21:07:24.401Z,20.1
2023-04-25T21:09:08.077Z,20.2
2023-04-25T21:10:51.802Z,20.2
2023-04-25T21:12:35.592Z,20.2
2023-04-25T21:14:19.122Z,20.2
2023-04-25T21:16:02.979Z,20.2
2023-04-25T21:17:46.682Z,20.3
2023-04-25T21:19:30.290Z,20.3
2023-04-25T21:21:14.125Z,20.3
2023-04-25T21:22:58.008Z,20.3
2023-04-25T21:24:41.336Z,20.4
2023-04-25T21:26:25.044Z,20.4
2023-04-25T21:28:08.781Z,20.4
2023-04-25T21:29:52.458Z,20.4
2023-04-25T21:31:36.170Z,20.4
2023-04-25T21:33:19.861Z,20.4
2023-04-25T21:35:03.556Z,20.4
2023-04-25T21:36:47.268Z,20.5
2023-04-25T21:38:30.993Z,20.5
2023-04-25T21:40:14.660Z,20.5
2023-04-25T21:41:58.387Z,20.5
2023-04-25T21:43:42.172Z,20.5
2023-04-25T21:45:25.775Z,20.5
2023-04-25T21:47:09.464Z,20.5
2023-04-25T21:48:53.180Z,20.5
2023-04-25T21:50:36.881Z,20.5
2023-04-25T21:52:20.620Z,20.6
2023-04-25T21:54:04.256Z,20.6
2023-04-25T21:55:47.953Z,20.6
2023-04-25T21:57:31.682Z,20.6
2023-04-25T21:59:15.476Z,20.6
2023-04-25T22:00:59.128Z,20.6
2023-04-25T22:02:42.784Z,20.6
2023-04-25T22:04:26.465Z,20.6
2023-04-25T22:06:10.184Z,20.6
2023-04-25T22:07:53.873Z,20.6
2023-04-25T22:09:37.635Z,20.6
2023-04-25T22:11:21.426Z,20.6
2023-04-25T22:13:04.980Z,20.6
2023-04-25T22:14:48.694Z,20.6
2023-04-25T22:16:32.361Z,20.6
2023-04-25T22:18:16.078Z,20.6
2023-04-25T22:19:59.812Z,20.5
2023-04-25T22:21:43.590Z,20.5
2023-04-25T22:23:27.156Z,20.5
2023-04-25T22:25:10.876Z,20.5
2023-04-25T22:26:54.611Z,20.5
2023-04-25T22:28:38.395Z,20.5
2023-04-25T22:30:22.030Z,20.4
2023-04-25T22:32:05.706Z,20.4
2023-04-25T22:33:49.401Z,20.4
2023-04-25T22:35:33.095Z,20.4
2023-04-25T22:37:16.797Z,20.4
2023-04-25T22:39:00.506Z,20.4
2023-04-25T22:40:44.197Z,20.3
2023-04-25T22:42:27.917Z,20.3
2023-04-25T22:44:11.609Z,20.3
2023-04-25T22:45:55.304Z,20.3
2023-04-25T22:47:39.030Z,20.3
2023-04-25T22:49:22.725Z,20.3
2023-04-25T22:51:06.456Z,20.3
2023-04-25T22:52:50.120Z,20.2
2023-04-25T22:54:33.858Z,20.3
2023-04-25T22:56:17.582Z,20.2
2023-04-25T22:58:01.290Z,20.2
2023-04-25T22:59:44.928Z,20.2
2023-04-25T23:01:28.854Z,20.2
2023-04-25T23:03:12.342Z,20.2
2023-04-25T23:04:56.043Z,20.2
2023-04-25T23:06:39.762Z,20.2
2023-04-25T23:08:23.453Z,20.2
2023-04-25T23:10:07.192Z,20.2
2023-04-25T23:11:50.820Z,20.2
2023-04-25T23:13:34.542Z,20.1
2023-04-25T23:15:18.253Z,20.1
2023-04-25T23:17:01.941Z,20.1
2023-04-25T23:18:45.777Z,20.1